Shawnee Mission, KS (66224)

4:14 AM CDT on September 01, 2014 (GMT -0500)
Blue Hills Country Club | Change Station
CLOSE
Current Station
Personal Weather Station
Location: Kansas City, MO
Elevation: 955 ft
Nearby Weather Stations

Elev 955 ft 38.89 °N, 94.60 °W | Updated 11 minutes ago

Light Rain
Light Rain Mist
59.2 °F
Feels Like 59.2 °F
N
1.7
Wind Variable Wind from SSW

Today
High -- | Low -- °F
--% Chance of Precip.
Yesterday
High -- | Low -- °F
Precip. -- in
6:47 AM 7:48 PM
Waxing Crescent, 39% visible
Pressure 29.87 in
Visibility 5.0 miles
Clouds Mostly Cloudy 400 ft
Mostly Cloudy 4100 ft
Overcast 9000 ft
Dew Point 58 °F
Humidity 95%
Rainfall 0.83 in
Snow Depth Not available.
UV 0 out of 12
Pollen 9.30 out of 12
Air Quality Not available.
Flu Activity Not available.
SPECI KOJC 010908Z AUTO 15012KT 5SM -RA BR BKN004 BKN041 OVC090 18/18 A2987 RMK AO2 LTG DSNT S AND W PRESFR P0004 T01830183

More Conditions Fewer Conditions

Pressure 29.87 in
Visibility 5.0 miles
Clouds Mostly Cloudy 400 ft
Mostly Cloudy 4100 ft
Overcast 9000 ft
Dew Point 58 °F
Humidity 95%
Rainfall 0.83 in
Snow Depth Not available.
UV 0 out of 12
Pollen 9.30 out of 12
Air Quality Not available.
Flu Activity Not available.
SPECI KOJC 010908Z AUTO 15012KT 5SM -RA BR BKN004 BKN041 OVC090 18/18 A2987 RMK AO2 LTG DSNT S AND W PRESFR P0004 T01830183

More Conditions Fewer Conditions

10-Day Weather Forecast

Almanac

Astronomy

Sep. 01, 2014 Rise Set
Actual Time 6:47 AM CDT 7:48 PM CDT
Civil Twilight 6:20 AM CDT 8:16 PM CDT
Nautical Twilight 5:47 AM CDT 8:48 PM CDT
Astronomical Twilight 5:13 AM CDT 9:22 PM CDT
Moon 1:30 PM CDT 11:54 PM CDT
Length of Visible Light 13h 55m
Length of Day
13h 01m
Tomorrow will be 2m 25s shorter.
Waxing Crescent, 39% of the Moon is Illuminated
Today
Waxing Crescent
Sep 2
First Quarter
Sep 8
Full
Sep 15
Last Quarter
Sep 24
New

Today's Extremes

State Highs State Lows

Community

WunderPhotos

Upload Photos

1,749,178 photos uploaded!

Nearby

Snow Depth

Station Depth Elevation
No new snow has been reported.

Earthquake Activity

City Distance Mag. Time & Date
No recent earthquake activity has been reported nearby.
Minimum magnitude displayed is 2.5.

Coastal Water Temperatures

Place Temperature
No Stations Reporting

Nearby Weather Stations